createdAt,value
2018-11-27T00:02:23.500Z,54.19
2018-11-27T00:04:50.421Z,54.25
2018-11-27T00:07:17.339Z,54.18
2018-11-27T00:09:44.238Z,53.86
2018-11-27T00:12:11.127Z,53.87
2018-11-27T00:14:38.207Z,54.08
2018-11-27T00:17:05.108Z,54.58
2018-11-27T00:19:31.994Z,54.54
2018-11-27T00:21:58.899Z,54.09
2018-11-27T00:24:25.799Z,54.40
2018-11-27T00:26:52.696Z,54.18
2018-11-27T00:29:19.607Z,53.72
2018-11-27T00:31:46.501Z,53.88
2018-11-27T00:34:13.422Z,54.55
2018-11-27T00:36:40.314Z,54.58
2018-11-27T00:39:07.262Z,53.75
2018-11-27T00:41:34.163Z,53.77
2018-11-27T00:44:01.050Z,54.25
2018-11-27T00:46:27.937Z,53.98
2018-11-27T00:48:54.841Z,53.72
2018-11-27T00:51:21.779Z,53.67
2018-11-27T00:53:48.679Z,54.46
2018-11-27T00:56:15.583Z,53.79
2018-11-27T00:58:42.479Z,54.82
2018-11-27T01:01:09.371Z,54.51
2018-11-27T01:03:36.262Z,54.21
2018-11-27T01:06:03.166Z,54.73
2018-11-27T01:08:30.092Z,54.06
2018-11-27T01:10:56.995Z,54.06
2018-11-27T01:13:23.883Z,54.45
2018-11-27T01:15:50.792Z,54.61
2018-11-27T01:18:17.686Z,54.32
2018-11-27T01:20:44.612Z,54.59
2018-11-27T01:23:11.498Z,53.82
2018-11-27T01:25:38.396Z,54.40
2018-11-27T01:28:05.295Z,54.54
2018-11-27T01:30:32.178Z,53.92
2018-11-27T01:32:59.080Z,53.97
2018-11-27T01:35:25.978Z,53.86
2018-11-27T01:37:52.884Z,54.74
2018-11-27T01:40:19.782Z,53.93
2018-11-27T01:42:46.715Z,54.60
2018-11-27T01:45:13.619Z,54.47
2018-11-27T01:47:40.515Z,54.65
2018-11-27T01:50:07.415Z,53.91
2018-11-27T01:52:34.302Z,54.53
2018-11-27T01:55:01.214Z,54.58
2018-11-27T01:57:28.112Z,54.61
2018-11-27T01:59:55.009Z,54.14
2018-11-27T02:02:21.899Z,54.58
2018-11-27T02:04:48.782Z,54.80
2018-11-27T02:07:15.693Z,54.11
2018-11-27T02:09:42.588Z,53.87
2018-11-27T02:12:09.475Z,54.75
2018-11-27T02:14:36.416Z,54.13
2018-11-27T02:17:03.308Z,54.55
2018-11-27T02:19:30.198Z,54.37
2018-11-27T02:21:57.173Z,53.88
2018-11-27T02:24:24.063Z,54.74
2018-11-27T02:26:51.092Z,54.18
2018-11-27T02:29:18.002Z,54.57
2018-11-27T02:31:44.904Z,54.58
2018-11-27T02:34:11.801Z,54.47
2018-11-27T02:36:38.787Z,54.62
2018-11-27T02:39:05.681Z,54.03
2018-11-27T02:41:32.567Z,54.46
2018-11-27T02:43:59.483Z,53.85
2018-11-27T02:46:26.465Z,54.29
2018-11-27T02:48:53.451Z,53.88
2018-11-27T02:51:20.359Z,54.49
2018-11-27T02:53:47.267Z,54.71
2018-11-27T02:56:14.148Z,54.38
2018-11-27T02:58:41.039Z,54.02
2018-11-27T03:01:07.932Z,53.83
2018-11-27T03:03:34.824Z,53.91
2018-11-27T03:06:01.720Z,54.08
2018-11-27T03:08:28.631Z,54.49
2018-11-27T03:10:55.632Z,53.95
2018-11-27T03:13:22.551Z,54.39
2018-11-27T03:15:49.444Z,53.91
2018-11-27T03:18:16.331Z,53.77
2018-11-27T03:20:43.237Z,54.51
2018-11-27T03:23:10.146Z,54.52
2018-11-27T03:25:37.085Z,54.20
2018-11-27T03:28:04.104Z,54.80
2018-11-27T03:30:31.021Z,54.29
2018-11-27T03:32:57.921Z,53.75
2018-11-27T03:35:25.210Z,54.32
2018-11-27T03:37:52.125Z,54.26
2018-11-27T03:40:19.036Z,53.86
2018-11-27T03:42:45.930Z,54.22
2018-11-27T03:45:12.828Z,54.26
2018-11-27T03:47:39.746Z,54.08
2018-11-27T03:50:06.762Z,53.74
2018-11-27T03:52:33.662Z,54.27
2018-11-27T03:55:00.581Z,53.74
2018-11-27T03:57:27.467Z,54.55
2018-11-27T03:59:54.377Z,54.08
2018-11-27T04:02:21.369Z,54.41
2018-11-27T04:04:48.288Z,53.69
2018-11-27T04:07:15.174Z,54.41
2018-11-27T04:09:42.099Z,54.42
2018-11-27T04:12:08.988Z,54.38
2018-11-27T04:14:35.919Z,53.75
2018-11-27T04:17:02.837Z,53.52
2018-11-27T04:19:29.748Z,53.98
2018-11-27T04:21:56.726Z,53.50
2018-11-27T04:24:23.622Z,53.77
2018-11-27T04:26:50.547Z,54.32
2018-11-27T04:29:17.439Z,54.13
2018-11-27T04:31:44.332Z,53.59
2018-11-27T04:34:11.237Z,53.56
2018-11-27T04:36:38.132Z,54.30
2018-11-27T04:39:05.064Z,54.04
2018-11-27T04:41:31.969Z,53.63
2018-11-27T04:43:58.863Z,53.69
2018-11-27T04:46:25.763Z,53.81
2018-11-27T04:48:52.710Z,53.71
2018-11-27T04:51:19.831Z,54.27
2018-11-27T04:53:46.760Z,53.69
2018-11-27T04:56:13.667Z,54.10
2018-11-27T04:58:40.814Z,53.85
2018-11-27T05:01:07.823Z,53.72
2018-11-27T05:03:34.720Z,53.82
2018-11-27T05:06:01.955Z,53.67
2018-11-27T05:08:28.869Z,54.68
2018-11-27T05:10:55.792Z,53.92
2018-11-27T05:13:22.992Z,54.48
2018-11-27T05:15:50.018Z,54.52
2018-11-27T05:18:17.048Z,53.85
2018-11-27T05:20:44.168Z,54.40
2018-11-27T05:23:11.495Z,54.61
2018-11-27T05:25:38.415Z,53.83
2018-11-27T05:28:05.324Z,53.89
2018-11-27T05:30:32.544Z,54.61
2018-11-27T05:32:59.524Z,54.19
2018-11-27T05:35:26.462Z,54.89
2018-11-27T05:37:53.509Z,54.61
2018-11-27T05:40:20.402Z,54.77
2018-11-27T05:42:47.316Z,54.65
2018-11-27T05:45:14.230Z,54.86
2018-11-27T05:47:41.123Z,54.50
2018-11-27T05:50:08.039Z,54.26
2018-11-27T05:52:35.032Z,54.70
2018-11-27T05:55:01.958Z,54.93
2018-11-27T05:57:28.860Z,54.74
2018-11-27T05:59:55.762Z,55.05
2018-11-27T06:02:22.679Z,55.00
2018-11-27T06:04:49.580Z,54.41
2018-11-27T06:07:16.488Z,54.72
2018-11-27T06:09:43.405Z,54.29
2018-11-27T06:12:10.413Z,54.90
2018-11-27T06:14:37.318Z,54.22
2018-11-27T06:17:04.235Z,54.21
2018-11-27T06:19:31.119Z,54.26
2018-11-27T06:21:58.071Z,51.68
2018-11-27T06:24:25.012Z,53.70
2018-11-27T06:26:51.955Z,54.27
2018-11-27T06:29:18.868Z,54.43
2018-11-27T06:31:45.911Z,54.39
2018-11-27T06:34:12.903Z,54.37
2018-11-27T06:36:39.807Z,53.87
2018-11-27T06:39:06.804Z,54.45
2018-11-27T06:41:34.038Z,54.55
2018-11-27T06:44:01.001Z,54.57
2018-11-27T06:46:27.905Z,54.08
2018-11-27T06:48:54.881Z,54.55
2018-11-27T06:51:21.797Z,54.51
2018-11-27T06:53:48.717Z,54.00
2018-11-27T06:56:15.645Z,54.45
2018-11-27T06:58:42.549Z,54.70
2018-11-27T07:01:09.455Z,54.67
2018-11-27T07:03:36.365Z,53.90
2018-11-27T07:06:03.268Z,54.14
2018-11-27T07:08:30.164Z,54.43
2018-11-27T07:10:57.066Z,54.65
2018-11-27T07:13:23.998Z,53.59
2018-11-27T07:15:50.878Z,54.38
2018-11-27T07:18:17.772Z,54.02
2018-11-27T07:20:44.663Z,53.70
2018-11-27T07:23:11.556Z,54.20
2018-11-27T07:25:38.462Z,54.17
2018-11-27T07:28:05.355Z,54.18
2018-11-27T07:30:32.285Z,54.20
2018-11-27T07:32:59.205Z,54.59
2018-11-27T07:35:26.090Z,54.76
2018-11-27T07:37:53.097Z,54.36
2018-11-27T07:40:20.008Z,54.96
2018-11-27T07:42:46.994Z,55.12
2018-11-27T07:45:13.983Z,55.17
2018-11-27T07:47:41.005Z,55.05
2018-11-27T07:50:08.080Z,54.37
2018-11-27T07:52:35.104Z,54.38
2018-11-27T07:55:02.113Z,55.05
2018-11-27T07:57:29.107Z,54.84
2018-11-27T07:59:56.140Z,54.49
2018-11-27T08:02:23.115Z,54.35
2018-11-27T08:04:50.125Z,54.30
2018-11-27T08:07:17.079Z,55.14
2018-11-27T08:09:44.102Z,54.73
2018-11-27T08:12:11.090Z,54.51
2018-11-27T08:14:38.080Z,54.98
2018-11-27T08:17:05.064Z,55.25
2018-11-27T08:19:32.009Z,54.89
2018-11-27T08:21:58.980Z,54.38
2018-11-27T08:24:25.867Z,55.21
2018-11-27T08:26:52.791Z,54.70
2018-11-27T08:29:19.692Z,55.15
2018-11-27T08:31:46.587Z,55.15
2018-11-27T08:34:13.490Z,55.42
2018-11-27T08:36:40.389Z,55.38
2018-11-27T08:39:07.380Z,55.32
2018-11-27T08:41:40.326Z,54.90
2018-11-27T08:44:01.280Z,55.33
2018-11-27T08:46:28.251Z,55.40
2018-11-27T08:48:55.134Z,55.26
2018-11-27T08:51:22.037Z,54.87
2018-11-27T08:53:48.946Z,55.14
2018-11-27T08:56:15.927Z,54.91
2018-11-27T08:58:42.845Z,54.85
2018-11-27T09:01:09.788Z,43.61
2018-11-27T09:03:36.696Z,46.34
2018-11-27T09:06:03.590Z,46.17
2018-11-27T09:08:30.501Z,48.30
2018-11-27T09:10:57.386Z,49.22
2018-11-27T09:13:24.285Z,50.33
2018-11-27T09:15:51.188Z,49.97
2018-11-27T09:18:18.093Z,50.08
2018-11-27T09:20:45.004Z,50.96
2018-11-27T09:23:11.915Z,50.82
2018-11-27T09:25:38.843Z,50.64
2018-11-27T09:28:05.751Z,50.30
2018-11-27T09:30:32.703Z,51.15
2018-11-27T09:32:59.711Z,51.55
2018-11-27T09:35:26.699Z,50.72
2018-11-27T09:37:53.611Z,51.27
2018-11-27T09:40:21.193Z,51.54
2018-11-27T09:42:48.104Z,52.03
2018-11-27T09:45:14.999Z,51.29
2018-11-27T09:47:41.919Z,51.21
2018-11-27T09:50:08.811Z,51.44
2018-11-27T09:52:35.726Z,51.92
2018-11-27T09:55:02.640Z,51.28
2018-11-27T09:57:29.564Z,51.60
2018-11-27T09:59:56.488Z,51.70
2018-11-27T10:02:23.396Z,52.37
2018-11-27T10:04:50.305Z,51.70
2018-11-27T10:07:17.245Z,52.27
2018-11-27T10:09:44.148Z,52.07
2018-11-27T10:12:11.052Z,52.69
2018-11-27T10:14:37.952Z,52.79
2018-11-27T10:17:04.852Z,52.59
2018-11-27T10:19:31.789Z,52.70
2018-11-27T10:21:58.687Z,52.56
2018-11-27T10:24:25.611Z,52.36
2018-11-27T10:26:52.511Z,52.36
2018-11-27T10:29:19.439Z,52.58
2018-11-27T10:31:46.374Z,51.97
2018-11-27T10:34:13.275Z,52.59
2018-11-27T10:36:40.166Z,52.73
2018-11-27T10:39:07.443Z,52.06
2018-11-27T10:41:34.443Z,52.65
2018-11-27T10:44:01.339Z,52.78
2018-11-27T10:46:28.422Z,52.18
2018-11-27T10:48:55.327Z,52.84
2018-11-27T10:51:22.260Z,52.17
2018-11-27T10:53:49.182Z,52.66
2018-11-27T10:56:16.104Z,52.87
2018-11-27T10:58:43.160Z,52.96
2018-11-27T11:02:17.521Z,52.70
2018-11-27T11:04:44.426Z,52.70
2018-11-27T11:07:11.326Z,52.92
2018-11-27T11:09:38.557Z,53.19
2018-11-27T11:12:05.472Z,52.89
2018-11-27T11:14:32.389Z,52.80
2018-11-27T11:16:59.293Z,52.41
2018-11-27T11:19:26.190Z,53.05
2018-11-27T11:21:53.101Z,53.10
2018-11-27T11:24:20.012Z,53.10
2018-11-27T11:26:46.923Z,53.06
2018-11-27T11:29:13.820Z,52.33
2018-11-27T11:31:40.736Z,53.26
2018-11-27T11:34:07.640Z,52.69
2018-11-27T11:36:34.542Z,53.08
2018-11-27T11:39:01.518Z,52.94
2018-11-27T11:41:31.242Z,52.87
2018-11-27T11:43:55.423Z,53.15
2018-11-27T11:46:22.442Z,52.33
2018-11-27T11:48:49.364Z,52.47
2018-11-27T11:51:16.256Z,53.07
2018-11-27T11:53:43.171Z,53.08
2018-11-27T11:56:10.061Z,52.96
2018-11-27T11:58:36.957Z,52.71
2018-11-27T12:01:03.854Z,52.94
2018-11-27T12:03:30.747Z,52.62
2018-11-27T12:05:57.643Z,52.98
2018-11-27T12:08:24.536Z,52.58
2018-11-27T12:10:51.442Z,53.21
2018-11-27T12:13:18.335Z,52.51
2018-11-27T12:15:45.292Z,52.95
2018-11-27T12:18:12.229Z,52.59
2018-11-27T12:20:39.192Z,53.15
2018-11-27T12:23:06.078Z,53.46
2018-11-27T12:25:32.970Z,52.94
2018-11-27T12:27:59.888Z,52.70
2018-11-27T12:30:27.509Z,53.08
2018-11-27T12:32:54.423Z,53.64
2018-11-27T12:35:21.868Z,53.78
2018-11-27T12:37:48.862Z,53.81
2018-11-27T12:40:15.772Z,53.67
2018-11-27T12:42:42.690Z,53.10
2018-11-27T12:45:09.599Z,53.03
2018-11-27T12:47:36.496Z,53.21
2018-11-27T12:50:03.465Z,53.08
2018-11-27T12:52:30.351Z,53.66
2018-11-27T12:54:57.248Z,53.27
2018-11-27T12:57:24.180Z,53.88
2018-11-27T12:59:51.096Z,53.32
2018-11-27T13:02:18.036Z,53.55
2018-11-27T13:04:44.935Z,53.77
2018-11-27T13:07:11.845Z,54.33
2018-11-27T13:09:38.847Z,53.99
2018-11-27T13:12:05.822Z,54.33
2018-11-27T13:14:32.929Z,53.87
2018-11-27T13:16:59.868Z,53.88
2018-11-27T13:19:26.833Z,54.56
2018-11-27T13:21:53.714Z,54.07
2018-11-27T13:24:20.613Z,54.42
2018-11-27T13:26:47.619Z,54.39
2018-11-27T13:29:14.564Z,54.71
2018-11-27T13:31:41.454Z,54.09
2018-11-27T13:34:08.376Z,54.49
2018-11-27T13:36:35.266Z,54.12
2018-11-27T13:39:02.199Z,54.98
2018-11-27T13:41:29.197Z,54.09
2018-11-27T13:43:56.124Z,53.92
2018-11-27T13:46:23.082Z,54.66
2018-11-27T13:48:50.022Z,54.43
2018-11-27T13:51:16.928Z,54.58
2018-11-27T13:53:43.915Z,54.69
2018-11-27T13:56:10.825Z,54.39
2018-11-27T13:58:37.832Z,54.14
2018-11-27T14:01:04.788Z,54.86
2018-11-27T14:03:31.758Z,54.80
2018-11-27T14:05:58.811Z,54.73
2018-11-27T14:08:25.862Z,54.77
2018-11-27T14:10:52.866Z,54.77
2018-11-27T14:13:19.890Z,54.19
2018-11-27T14:15:46.885Z,54.60
2018-11-27T14:18:13.925Z,54.05
2018-11-27T14:20:40.952Z,54.13
2018-11-27T14:23:07.975Z,54.28
2018-11-27T14:25:35.069Z,54.81
2018-11-27T14:28:02.096Z,54.72
2018-11-27T14:30:28.987Z,54.30
2018-11-27T14:32:55.900Z,54.71
2018-11-27T14:35:22.839Z,54.12
2018-11-27T14:37:49.727Z,54.80
2018-11-27T14:40:16.734Z,55.26
2018-11-27T14:42:43.725Z,54.22
2018-11-27T14:45:10.792Z,54.73
2018-11-27T14:47:37.814Z,54.96
2018-11-27T14:50:04.813Z,54.28
2018-11-27T14:52:31.884Z,54.58
2018-11-27T14:54:58.850Z,54.75
2018-11-27T14:57:25.877Z,54.04
2018-11-27T14:59:52.871Z,54.96
2018-11-27T15:02:19.994Z,54.86
2018-11-27T15:04:47.060Z,54.48
2018-11-27T15:07:14.251Z,54.12
2018-11-27T15:09:41.251Z,54.18
2018-11-27T15:12:08.704Z,53.98
2018-11-27T15:14:35.640Z,54.46
2018-11-27T15:17:02.739Z,54.67
2018-11-27T15:19:29.631Z,55.03
2018-11-27T15:21:56.638Z,53.83
2018-11-27T15:24:23.590Z,53.45
2018-11-27T15:26:50.524Z,54.82
2018-11-27T15:29:17.418Z,54.13
2018-11-27T15:31:44.389Z,54.54
2018-11-27T15:34:11.400Z,54.76
2018-11-27T15:36:38.386Z,53.83
2018-11-27T15:39:05.392Z,54.20
2018-11-27T15:41:32.302Z,53.96
2018-11-27T15:43:59.198Z,53.94
2018-11-27T15:46:26.169Z,53.85
2018-11-27T15:48:53.070Z,54.56
2018-11-27T15:51:19.979Z,54.40
2018-11-27T15:53:46.886Z,54.17
2018-11-27T15:56:13.861Z,53.81
2018-11-27T15:58:40.797Z,53.75
2018-11-27T16:01:07.756Z,53.73
2018-11-27T16:03:34.788Z,54.34
2018-11-27T16:06:01.841Z,54.15
2018-11-27T16:08:28.828Z,54.08
2018-11-27T16:10:55.780Z,54.34
2018-11-27T16:13:23.131Z,54.27
2018-11-27T16:15:50.089Z,53.32
2018-11-27T16:18:17.081Z,54.43
2018-11-27T16:20:44.018Z,54.02
2018-11-27T16:23:11.029Z,53.85
2018-11-27T16:25:38.253Z,53.25
2018-11-27T16:28:05.180Z,54.13
2018-11-27T16:30:32.091Z,54.48
2018-11-27T16:32:59.060Z,54.51
2018-11-27T16:35:26.061Z,54.21
2018-11-27T16:37:53.033Z,54.26
2018-11-27T16:40:19.967Z,53.55
2018-11-27T16:42:46.963Z,53.78
2018-11-27T16:45:13.875Z,54.21
2018-11-27T16:47:40.795Z,54.05
2018-11-27T16:50:07.687Z,53.76
2018-11-27T16:52:34.609Z,53.89
2018-11-27T16:55:01.511Z,53.54
2018-11-27T16:57:28.401Z,53.70
2018-11-27T16:59:55.299Z,54.10
2018-11-27T17:02:22.215Z,54.16
2018-11-27T17:04:49.117Z,53.55
2018-11-27T17:07:16.040Z,53.65
2018-11-27T17:09:42.930Z,54.13
2018-11-27T17:12:09.811Z,53.78
2018-11-27T17:14:36.713Z,53.77
2018-11-27T17:17:03.612Z,53.62
2018-11-27T17:19:30.504Z,53.91
2018-11-27T17:21:57.398Z,53.70
2018-11-27T17:24:24.296Z,54.41
2018-11-27T17:26:51.227Z,53.68
2018-11-27T17:29:18.114Z,53.80
2018-11-27T17:31:45.013Z,54.17
2018-11-27T17:34:11.907Z,53.64
2018-11-27T17:36:38.813Z,54.18
2018-11-27T17:39:05.715Z,53.97
2018-11-27T17:41:32.620Z,53.19
2018-11-27T17:43:59.530Z,53.61
2018-11-27T17:46:26.430Z,53.65
2018-11-27T17:48:53.355Z,54.02
2018-11-27T17:51:20.243Z,54.21
2018-11-27T17:53:47.142Z,53.79
2018-11-27T17:56:14.052Z,54.46
2018-11-27T17:58:41.034Z,53.95
2018-11-27T18:01:08.087Z,54.83
2018-11-27T18:03:34.975Z,55.12
2018-11-27T18:06:01.860Z,55.48
2018-11-27T18:08:28.786Z,55.47
2018-11-27T18:10:55.761Z,55.79
2018-11-27T18:13:22.774Z,55.71
2018-11-27T18:15:49.710Z,55.83
2018-11-27T18:18:16.623Z,55.50
2018-11-27T18:20:43.631Z,55.65
2018-11-27T18:23:10.564Z,55.21
2018-11-27T18:25:37.501Z,55.80
2018-11-27T18:28:04.408Z,55.12
2018-11-27T18:30:31.428Z,55.62
2018-11-27T18:32:58.322Z,54.95
2018-11-27T18:35:25.712Z,55.11
2018-11-27T18:37:52.694Z,55.20
2018-11-27T18:40:19.699Z,55.17
2018-11-27T18:42:46.725Z,55.09
2018-11-27T18:45:13.677Z,55.67
2018-11-27T18:47:40.910Z,55.85
2018-11-27T18:50:07.844Z,55.05
2018-11-27T18:52:34.830Z,55.48
2018-11-27T18:55:01.754Z,55.73
2018-11-27T18:57:29.806Z,55.57
2018-11-27T18:59:56.793Z,55.21
2018-11-27T19:02:23.756Z,55.54
2018-11-27T19:04:50.699Z,54.92
2018-11-27T19:07:17.616Z,55.34
2018-11-27T19:09:44.535Z,55.46
2018-11-27T19:12:11.472Z,55.01
2018-11-27T19:14:38.708Z,55.77
2018-11-27T19:17:07.213Z,55.13
2018-11-27T19:19:34.160Z,55.58
2018-11-27T19:22:02.340Z,55.42
2018-11-27T19:24:30.449Z,55.65
2018-11-27T19:26:57.729Z,55.83
2018-11-27T19:29:25.044Z,55.79
2018-11-27T19:31:52.307Z,55.72
2018-11-27T19:34:19.548Z,55.17
2018-11-27T19:36:46.791Z,54.96
2018-11-27T19:39:13.704Z,55.05
2018-11-27T19:41:41.213Z,55.41
2018-11-27T19:44:08.167Z,55.06
2018-11-27T19:46:35.742Z,55.46
2018-11-27T19:49:03.016Z,55.20
2018-11-27T19:51:29.941Z,55.48
2018-11-27T19:53:56.839Z,54.87
2018-11-27T19:56:23.826Z,55.64
2018-11-27T19:58:50.845Z,55.98
2018-11-27T20:01:17.740Z,55.17
2018-11-27T20:03:44.656Z,56.04
2018-11-27T20:06:11.560Z,55.77
2018-11-27T20:08:38.517Z,56.32
2018-11-27T20:11:05.483Z,56.06
2018-11-27T20:13:32.392Z,56.19
2018-11-27T20:15:59.280Z,55.64
2018-11-27T20:18:26.167Z,55.77
2018-11-27T20:20:53.080Z,56.03
2018-11-27T20:23:19.997Z,55.79
2018-11-27T20:25:46.953Z,55.64
2018-11-27T20:28:13.870Z,55.80
2018-11-27T20:30:40.759Z,55.84
2018-11-27T20:33:07.673Z,55.84
2018-11-27T20:35:34.567Z,56.97
2018-11-27T20:38:01.480Z,55.97
2018-11-27T20:40:28.378Z,56.62
2018-11-27T20:42:55.288Z,56.17
2018-11-27T20:45:22.607Z,56.94
2018-11-27T20:47:49.498Z,56.93
2018-11-27T20:50:16.499Z,56.74
2018-11-27T20:52:43.404Z,56.35
2018-11-27T20:55:10.302Z,56.48
2018-11-27T20:57:37.208Z,55.93
2018-11-27T21:00:04.108Z,56.58
2018-11-27T21:02:31.068Z,56.61
2018-11-27T21:04:58.063Z,55.83
2018-11-27T21:07:25.023Z,55.90
2018-11-27T21:09:51.919Z,55.83
2018-11-27T21:12:18.842Z,56.25
2018-11-27T21:14:45.738Z,55.51
2018-11-27T21:17:12.636Z,55.72
2018-11-27T21:19:39.544Z,56.39
2018-11-27T21:22:06.459Z,56.34
2018-11-27T21:24:33.388Z,56.24
2018-11-27T21:27:00.317Z,55.70
2018-11-27T21:29:27.214Z,55.66
2018-11-27T21:31:54.108Z,56.03
2018-11-27T21:34:21.007Z,56.07
2018-11-27T21:36:47.957Z,56.04
2018-11-27T21:39:14.861Z,56.03
2018-11-27T21:41:41.787Z,56.29
2018-11-27T21:44:08.697Z,55.53
2018-11-27T21:46:35.602Z,56.25
2018-11-27T21:49:02.491Z,56.00
2018-11-27T21:51:29.391Z,56.02
2018-11-27T21:53:56.310Z,55.83
2018-11-27T21:56:23.227Z,56.78
2018-11-27T21:58:50.167Z,56.44
2018-11-27T22:01:17.092Z,55.54
2018-11-27T22:03:44.002Z,56.33
2018-11-27T22:06:10.903Z,55.41
2018-11-27T22:08:37.836Z,55.86
2018-11-27T22:11:04.734Z,55.33
2018-11-27T22:13:31.627Z,55.91
2018-11-27T22:15:58.539Z,56.21
2018-11-27T22:18:25.435Z,55.80
2018-11-27T22:20:52.331Z,55.15
2018-11-27T22:23:19.248Z,55.60
2018-11-27T22:25:46.162Z,55.43
2018-11-27T22:28:13.069Z,55.55
2018-11-27T22:30:40.005Z,55.20
2018-11-27T22:33:06.909Z,55.52
2018-11-27T22:35:33.814Z,55.82
2018-11-27T22:38:00.756Z,55.78
2018-11-27T22:40:27.657Z,55.87
2018-11-27T22:42:55.168Z,55.80
2018-11-27T22:45:21.504Z,55.78
2018-11-27T22:47:48.615Z,55.74
2018-11-27T22:50:15.518Z,55.69
2018-11-27T22:52:42.406Z,55.56
2018-11-27T22:55:09.301Z,55.09
2018-11-27T22:57:36.227Z,55.02
2018-11-27T23:00:03.181Z,55.77
2018-11-27T23:02:30.086Z,55.77
2018-11-27T23:04:56.991Z,55.11
2018-11-27T23:07:29.201Z,55.66
2018-11-27T23:09:56.104Z,54.84
2018-11-27T23:12:22.998Z,55.06
2018-11-27T23:14:49.924Z,55.66
2018-11-27T23:17:16.837Z,55.12
2018-11-27T23:19:43.732Z,55.68
2018-11-27T23:22:10.620Z,55.08
2018-11-27T23:24:37.503Z,54.98
2018-11-27T23:27:04.407Z,55.17
2018-11-27T23:29:31.337Z,55.29
2018-11-27T23:31:58.231Z,54.91
2018-11-27T23:34:25.127Z,55.38
2018-11-27T23:36:52.031Z,54.66
2018-11-27T23:39:18.922Z,55.34
2018-11-27T23:41:45.826Z,55.41
2018-11-27T23:44:12.715Z,55.37
2018-11-27T23:46:39.643Z,56.70
2018-11-27T23:49:06.553Z,56.14
2018-11-27T23:51:33.547Z,56.46
2018-11-27T23:54:00.452Z,56.95
2018-11-27T23:56:27.347Z,57.14
2018-11-27T23:58:54.278Z,56.31
